sensor_id;sensor_type;location;lat;lon;timestamp;P1;durP1;ratioP1;P2;durP2;ratioP2
1811;SDS011;904;47.814;11.134;2023-08-17T00:02:28;6.53;;;5.90;;
1811;SDS011;904;47.814;11.134;2023-08-17T00:04:55;9.80;;;8.40;;
1811;SDS011;904;47.814;11.134;2023-08-17T00:07:22;6.90;;;5.80;;
1811;SDS011;904;47.814;11.134;2023-08-17T00:09:50;9.77;;;7.20;;
1811;SDS011;904;47.814;11.134;2023-08-17T00:12:18;10.43;;;6.80;;
1811;SDS011;904;47.814;11.134;2023-08-17T00:14:44;8.37;;;6.47;;
1811;SDS011;904;47.814;11.134;2023-08-17T00:17:11;9.67;;;6.60;;
1811;SDS011;904;47.814;11.134;2023-08-17T00:19:40;8.70;;;6.47;;
1811;SDS011;904;47.814;11.134;2023-08-17T00:22:07;6.90;;;6.20;;
1811;SDS011;904;47.814;11.134;2023-08-17T00:24:35;11.43;;;6.60;;
1811;SDS011;904;47.814;11.134;2023-08-17T00:27:03;7.87;;;6.50;;
1811;SDS011;904;47.814;11.134;2023-08-17T00:29:30;7.37;;;6.40;;
1811;SDS011;904;47.814;11.134;2023-08-17T00:32:00;7.97;;;6.50;;
1811;SDS011;904;47.814;11.134;2023-08-17T00:34:27;7.40;;;6.30;;
1811;SDS011;904;47.814;11.134;2023-08-17T00:36:54;8.70;;;5.70;;
1811;SDS011;904;47.814;11.134;2023-08-17T00:39:21;7.30;;;6.60;;
1811;SDS011;904;47.814;11.134;2023-08-17T00:41:48;9.37;;;6.83;;
1811;SDS011;904;47.814;11.134;2023-08-17T00:44:16;13.63;;;6.43;;
1811;SDS011;904;47.814;11.134;2023-08-17T00:46:43;8.13;;;7.10;;
1811;SDS011;904;47.814;11.134;2023-08-17T00:49:11;6.67;;;5.93;;
1811;SDS011;904;47.814;11.134;2023-08-17T00:51:39;7.83;;;6.33;;
1811;SDS011;904;47.814;11.134;2023-08-17T00:54:06;7.33;;;6.00;;
1811;SDS011;904;47.814;11.134;2023-08-17T00:56:34;7.87;;;6.40;;
1811;SDS011;904;47.814;11.134;2023-08-17T00:59:02;7.87;;;6.90;;
1811;SDS011;904;47.814;11.134;2023-08-17T01:01:30;10.50;;;7.07;;
1811;SDS011;904;47.814;11.134;2023-08-17T01:03:57;9.07;;;7.33;;
1811;SDS011;904;47.814;11.134;2023-08-17T01:06:24;8.60;;;7.37;;
1811;SDS011;904;47.814;11.134;2023-08-17T01:08:51;7.83;;;6.23;;
1811;SDS011;904;47.814;11.134;2023-08-17T01:11:20;8.27;;;7.40;;
1811;SDS011;904;47.814;11.134;2023-08-17T01:13:55;8.93;;;7.20;;
1811;SDS011;904;47.814;11.134;2023-08-17T01:16:32;7.97;;;6.97;;
1811;SDS011;904;47.814;11.134;2023-08-17T01:19:07;9.40;;;7.30;;
1811;SDS011;904;47.814;11.134;2023-08-17T01:21:37;8.97;;;7.17;;
1811;SDS011;904;47.814;11.134;2023-08-17T01:24:10;8.37;;;6.53;;
1811;SDS011;904;47.814;11.134;2023-08-17T01:26:37;10.23;;;6.70;;
1811;SDS011;904;47.814;11.134;2023-08-17T01:29:07;10.73;;;6.93;;
1811;SDS011;904;47.814;11.134;2023-08-17T01:31:36;8.30;;;5.73;;
1811;SDS011;904;47.814;11.134;2023-08-17T01:34:14;8.20;;;7.23;;
1811;SDS011;904;47.814;11.134;2023-08-17T01:36:50;10.57;;;6.93;;
1811;SDS011;904;47.814;11.134;2023-08-17T01:39:23;7.80;;;6.93;;
1811;SDS011;904;47.814;11.134;2023-08-17T01:41:53;8.60;;;6.67;;
1811;SDS011;904;47.814;11.134;2023-08-17T01:44:23;8.13;;;6.73;;
1811;SDS011;904;47.814;11.134;2023-08-17T01:46:52;8.70;;;7.27;;
1811;SDS011;904;47.814;11.134;2023-08-17T01:49:20;7.30;;;6.50;;
1811;SDS011;904;47.814;11.134;2023-08-17T01:51:49;7.60;;;6.73;;
1811;SDS011;904;47.814;11.134;2023-08-17T01:54:16;12.37;;;6.83;;
1811;SDS011;904;47.814;11.134;2023-08-17T01:56:45;8.20;;;6.80;;
1811;SDS011;904;47.814;11.134;2023-08-17T01:59:12;7.17;;;6.27;;
1811;SDS011;904;47.814;11.134;2023-08-17T02:01:39;10.83;;;7.00;;
1811;SDS011;904;47.814;11.134;2023-08-17T02:04:06;6.97;;;6.27;;
1811;SDS011;904;47.814;11.134;2023-08-17T02:06:33;6.83;;;5.90;;
1811;SDS011;904;47.814;11.134;2023-08-17T02:09:00;9.13;;;7.40;;
1811;SDS011;904;47.814;11.134;2023-08-17T02:11:27;8.10;;;6.73;;
1811;SDS011;904;47.814;11.134;2023-08-17T02:13:56;8.63;;;7.20;;
1811;SDS011;904;47.814;11.134;2023-08-17T02:16:23;9.50;;;7.30;;
1811;SDS011;904;47.814;11.134;2023-08-17T02:18:50;7.60;;;6.80;;
1811;SDS011;904;47.814;11.134;2023-08-17T02:21:18;8.23;;;6.67;;
1811;SDS011;904;47.814;11.134;2023-08-17T02:23:45;7.80;;;6.23;;
1811;SDS011;904;47.814;11.134;2023-08-17T02:26:14;7.47;;;6.70;;
1811;SDS011;904;47.814;11.134;2023-08-17T02:28:41;8.13;;;6.50;;
1811;SDS011;904;47.814;11.134;2023-08-17T02:31:10;8.67;;;5.53;;
1811;SDS011;904;47.814;11.134;2023-08-17T02:33:37;9.57;;;6.63;;
1811;SDS011;904;47.814;11.134;2023-08-17T02:36:04;6.83;;;6.00;;
1811;SDS011;904;47.814;11.134;2023-08-17T02:38:32;7.47;;;6.13;;
1811;SDS011;904;47.814;11.134;2023-08-17T02:40:59;8.10;;;7.10;;
1811;SDS011;904;47.814;11.134;2023-08-17T02:43:26;7.60;;;6.80;;
1811;SDS011;904;47.814;11.134;2023-08-17T02:45:58;9.63;;;6.70;;
1811;SDS011;904;47.814;11.134;2023-08-17T02:48:27;8.27;;;7.00;;
1811;SDS011;904;47.814;11.134;2023-08-17T02:50:54;9.77;;;7.73;;
1811;SDS011;904;47.814;11.134;2023-08-17T02:53:21;8.50;;;6.37;;
1811;SDS011;904;47.814;11.134;2023-08-17T02:55:48;7.90;;;7.10;;
1811;SDS011;904;47.814;11.134;2023-08-17T02:58:15;7.37;;;6.60;;
1811;SDS011;904;47.814;11.134;2023-08-17T03:00:43;7.87;;;7.07;;
1811;SDS011;904;47.814;11.134;2023-08-17T03:03:10;8.30;;;7.50;;
1811;SDS011;904;47.814;11.134;2023-08-17T03:05:38;9.63;;;7.30;;
1811;SDS011;904;47.814;11.134;2023-08-17T03:08:06;7.80;;;6.27;;
1811;SDS011;904;47.814;11.134;2023-08-17T03:10:33;6.93;;;5.97;;
1811;SDS011;904;47.814;11.134;2023-08-17T03:13:00;6.97;;;6.13;;
1811;SDS011;904;47.814;11.134;2023-08-17T03:15:28;8.30;;;7.00;;
1811;SDS011;904;47.814;11.134;2023-08-17T03:17:55;7.70;;;6.90;;
1811;SDS011;904;47.814;11.134;2023-08-17T03:20:22;7.23;;;6.53;;
1811;SDS011;904;47.814;11.134;2023-08-17T03:22:51;7.27;;;6.57;;
1811;SDS011;904;47.814;11.134;2023-08-17T03:25:18;8.90;;;7.70;;
1811;SDS011;904;47.814;11.134;2023-08-17T03:27:46;9.13;;;7.17;;
1811;SDS011;904;47.814;11.134;2023-08-17T03:30:13;10.93;;;7.10;;
1811;SDS011;904;47.814;11.134;2023-08-17T03:32:40;11.90;;;7.50;;
1811;SDS011;904;47.814;11.134;2023-08-17T03:35:08;11.40;;;7.50;;
1811;SDS011;904;47.814;11.134;2023-08-17T03:37:36;12.70;;;7.67;;
1811;SDS011;904;47.814;11.134;2023-08-17T03:40:06;8.67;;;7.40;;
1811;SDS011;904;47.814;11.134;2023-08-17T03:42:33;8.97;;;7.43;;
1811;SDS011;904;47.814;11.134;2023-08-17T03:45:01;16.30;;;7.53;;
1811;SDS011;904;47.814;11.134;2023-08-17T03:47:29;8.77;;;6.60;;
1811;SDS011;904;47.814;11.134;2023-08-17T03:49:56;8.10;;;6.80;;
1811;SDS011;904;47.814;11.134;2023-08-17T03:52:23;7.60;;;6.80;;
1811;SDS011;904;47.814;11.134;2023-08-17T03:54:51;8.57;;;7.63;;
1811;SDS011;904;47.814;11.134;2023-08-17T03:57:19;8.73;;;7.83;;
1811;SDS011;904;47.814;11.134;2023-08-17T03:59:46;7.60;;;6.80;;
1811;SDS011;904;47.814;11.134;2023-08-17T04:02:14;8.50;;;7.00;;
1811;SDS011;904;47.814;11.134;2023-08-17T04:04:41;8.20;;;7.40;;
1811;SDS011;904;47.814;11.134;2023-08-17T04:07:08;9.10;;;6.70;;
1811;SDS011;904;47.814;11.134;2023-08-17T04:09:37;8.13;;;7.20;;
1811;SDS011;904;47.814;11.134;2023-08-17T04:12:09;10.30;;;6.93;;
1811;SDS011;904;47.814;11.134;2023-08-17T04:14:38;13.53;;;7.40;;
1811;SDS011;904;47.814;11.134;2023-08-17T04:17:05;7.90;;;6.07;;
1811;SDS011;904;47.814;11.134;2023-08-17T04:19:32;9.33;;;6.90;;
1811;SDS011;904;47.814;11.134;2023-08-17T04:22:00;7.57;;;6.30;;
1811;SDS011;904;47.814;11.134;2023-08-17T04:24:33;7.27;;;5.90;;
1811;SDS011;904;47.814;11.134;2023-08-17T04:27:01;10.03;;;6.87;;
1811;SDS011;904;47.814;11.134;2023-08-17T04:29:28;7.57;;;6.70;;
1811;SDS011;904;47.814;11.134;2023-08-17T04:31:58;7.57;;;6.07;;
1811;SDS011;904;47.814;11.134;2023-08-17T04:34:25;12.70;;;7.03;;
1811;SDS011;904;47.814;11.134;2023-08-17T04:36:53;11.77;;;7.50;;
1811;SDS011;904;47.814;11.134;2023-08-17T04:39:20;9.60;;;7.70;;
1811;SDS011;904;47.814;11.134;2023-08-17T04:41:48;7.30;;;6.50;;
1811;SDS011;904;47.814;11.134;2023-08-17T04:44:17;8.20;;;6.40;;
1811;SDS011;904;47.814;11.134;2023-08-17T04:46:44;7.10;;;6.23;;
1811;SDS011;904;47.814;11.134;2023-08-17T04:49:13;7.10;;;6.40;;
1811;SDS011;904;47.814;11.134;2023-08-17T04:51:40;8.23;;;6.10;;
1811;SDS011;904;47.814;11.134;2023-08-17T04:54:07;7.53;;;6.70;;
1811;SDS011;904;47.814;11.134;2023-08-17T04:56:34;8.33;;;6.73;;
1811;SDS011;904;47.814;11.134;2023-08-17T04:59:02;11.37;;;7.57;;
1811;SDS011;904;47.814;11.134;2023-08-17T05:01:29;7.93;;;6.23;;
1811;SDS011;904;47.814;11.134;2023-08-17T05:03:57;11.80;;;6.80;;
1811;SDS011;904;47.814;11.134;2023-08-17T05:06:29;6.93;;;6.23;;
1811;SDS011;904;47.814;11.134;2023-08-17T05:08:57;7.80;;;6.63;;
1811;SDS011;904;47.814;11.134;2023-08-17T05:11:26;9.30;;;7.00;;
1811;SDS011;904;47.814;11.134;2023-08-17T05:13:56;7.80;;;6.80;;
1811;SDS011;904;47.814;11.134;2023-08-17T05:16:23;11.33;;;8.27;;
1811;SDS011;904;47.814;11.134;2023-08-17T05:18:51;10.70;;;8.00;;
1811;SDS011;904;47.814;11.134;2023-08-17T05:21:21;12.70;;;7.53;;
1811;SDS011;904;47.814;11.134;2023-08-17T05:23:50;10.47;;;9.17;;
1811;SDS011;904;47.814;11.134;2023-08-17T05:26:17;9.60;;;7.73;;
1811;SDS011;904;47.814;11.134;2023-08-17T05:28:46;10.20;;;8.23;;
1811;SDS011;904;47.814;11.134;2023-08-17T05:31:16;7.53;;;6.80;;
1811;SDS011;904;47.814;11.134;2023-08-17T05:33:43;11.43;;;7.87;;
1811;SDS011;904;47.814;11.134;2023-08-17T05:36:10;11.87;;;8.10;;
1811;SDS011;904;47.814;11.134;2023-08-17T05:38:38;8.50;;;6.87;;
1811;SDS011;904;47.814;11.134;2023-08-17T05:41:07;7.83;;;7.10;;
1811;SDS011;904;47.814;11.134;2023-08-17T05:43:34;9.83;;;7.20;;
1811;SDS011;904;47.814;11.134;2023-08-17T05:46:02;8.67;;;6.70;;
1811;SDS011;904;47.814;11.134;2023-08-17T05:48:29;7.53;;;6.40;;
1811;SDS011;904;47.814;11.134;2023-08-17T05:50:56;7.20;;;6.50;;
1811;SDS011;904;47.814;11.134;2023-08-17T05:53:23;9.67;;;6.87;;
1811;SDS011;904;47.814;11.134;2023-08-17T05:55:50;8.07;;;6.70;;
1811;SDS011;904;47.814;11.134;2023-08-17T05:58:19;9.50;;;6.73;;
1811;SDS011;904;47.814;11.134;2023-08-17T06:00:46;8.10;;;5.97;;
1811;SDS011;904;47.814;11.134;2023-08-17T06:03:13;7.07;;;5.60;;
1811;SDS011;904;47.814;11.134;2023-08-17T06:05:41;7.20;;;6.40;;
1811;SDS011;904;47.814;11.134;2023-08-17T06:08:08;7.07;;;5.53;;
1811;SDS011;904;47.814;11.134;2023-08-17T06:10:35;6.53;;;5.40;;
1811;SDS011;904;47.814;11.134;2023-08-17T06:13:03;6.17;;;5.50;;
1811;SDS011;904;47.814;11.134;2023-08-17T06:15:31;6.67;;;4.77;;
1811;SDS011;904;47.814;11.134;2023-08-17T06:17:58;7.10;;;5.50;;
1811;SDS011;904;47.814;11.134;2023-08-17T06:20:26;6.00;;;5.10;;
1811;SDS011;904;47.814;11.134;2023-08-17T06:22:53;7.50;;;5.40;;
1811;SDS011;904;47.814;11.134;2023-08-17T06:25:20;9.60;;;5.60;;
1811;SDS011;904;47.814;11.134;2023-08-17T06:27:48;6.93;;;5.13;;
1811;SDS011;904;47.814;11.134;2023-08-17T06:30:16;7.43;;;5.00;;
1811;SDS011;904;47.814;11.134;2023-08-17T06:32:45;7.60;;;4.77;;
1811;SDS011;904;47.814;11.134;2023-08-17T06:35:12;6.63;;;4.90;;
1811;SDS011;904;47.814;11.134;2023-08-17T06:37:39;5.20;;;4.13;;
1811;SDS011;904;47.814;11.134;2023-08-17T06:40:09;6.70;;;3.83;;
1811;SDS011;904;47.814;11.134;2023-08-17T06:42:36;5.13;;;4.23;;
1811;SDS011;904;47.814;11.134;2023-08-17T06:45:04;7.90;;;4.30;;
1811;SDS011;904;47.814;11.134;2023-08-17T06:47:32;7.00;;;4.70;;
1811;SDS011;904;47.814;11.134;2023-08-17T06:50:00;5.73;;;4.33;;
1811;SDS011;904;47.814;11.134;2023-08-17T06:52:28;5.83;;;4.83;;
1811;SDS011;904;47.814;11.134;2023-08-17T06:54:55;6.80;;;4.93;;
1811;SDS011;904;47.814;11.134;2023-08-17T06:57:22;6.17;;;4.83;;
1811;SDS011;904;47.814;11.134;2023-08-17T06:59:49;9.07;;;5.03;;
1811;SDS011;904;47.814;11.134;2023-08-17T07:02:16;10.10;;;4.77;;
1811;SDS011;904;47.814;11.134;2023-08-17T07:04:43;6.97;;;4.87;;
1811;SDS011;904;47.814;11.134;2023-08-17T07:07:11;5.70;;;4.70;;
1811;SDS011;904;47.814;11.134;2023-08-17T07:09:39;6.43;;;4.23;;
1811;SDS011;904;47.814;11.134;2023-08-17T07:12:06;6.20;;;4.40;;
1811;SDS011;904;47.814;11.134;2023-08-17T07:14:33;9.50;;;4.57;;
1811;SDS011;904;47.814;11.134;2023-08-17T07:17:00;6.27;;;4.50;;
1811;SDS011;904;47.814;11.134;2023-08-17T07:19:27;11.00;;;4.10;;
1811;SDS011;904;47.814;11.134;2023-08-17T07:21:54;6.30;;;4.33;;
1811;SDS011;904;47.814;11.134;2023-08-17T07:24:22;6.80;;;4.67;;
1811;SDS011;904;47.814;11.134;2023-08-17T07:26:49;8.67;;;4.07;;
1811;SDS011;904;47.814;11.134;2023-08-17T07:29:16;6.10;;;4.13;;
1811;SDS011;904;47.814;11.134;2023-08-17T07:31:43;7.90;;;4.30;;
1811;SDS011;904;47.814;11.134;2023-08-17T07:34:10;8.90;;;4.00;;
1811;SDS011;904;47.814;11.134;2023-08-17T07:36:37;6.70;;;4.20;;
1811;SDS011;904;47.814;11.134;2023-08-17T07:39:04;7.97;;;4.67;;
1811;SDS011;904;47.814;11.134;2023-08-17T07:41:33;8.77;;;4.40;;
1811;SDS011;904;47.814;11.134;2023-08-17T07:44:00;9.73;;;4.23;;
1811;SDS011;904;47.814;11.134;2023-08-17T07:46:27;7.33;;;4.37;;
1811;SDS011;904;47.814;11.134;2023-08-17T07:48:54;6.27;;;4.70;;
1811;SDS011;904;47.814;11.134;2023-08-17T07:51:21;7.87;;;3.60;;
1811;SDS011;904;47.814;11.134;2023-08-17T07:53:48;5.87;;;4.00;;
1811;SDS011;904;47.814;11.134;2023-08-17T07:56:15;10.10;;;4.87;;
1811;SDS011;904;47.814;11.134;2023-08-17T07:58:43;4.93;;;4.10;;
1811;SDS011;904;47.814;11.134;2023-08-17T08:01:10;5.77;;;3.30;;
1811;SDS011;904;47.814;11.134;2023-08-17T08:03:38;10.53;;;3.97;;
1811;SDS011;904;47.814;11.134;2023-08-17T08:06:05;6.90;;;4.10;;
1811;SDS011;904;47.814;11.134;2023-08-17T08:08:34;9.90;;;4.07;;
1811;SDS011;904;47.814;11.134;2023-08-17T08:11:01;5.10;;;3.47;;
1811;SDS011;904;47.814;11.134;2023-08-17T08:13:29;5.10;;;3.70;;
1811;SDS011;904;47.814;11.134;2023-08-17T08:15:58;6.80;;;3.93;;
1811;SDS011;904;47.814;11.134;2023-08-17T08:18:25;4.80;;;3.40;;
1811;SDS011;904;47.814;11.134;2023-08-17T08:20:52;7.20;;;4.93;;
1811;SDS011;904;47.814;11.134;2023-08-17T08:23:19;4.23;;;3.53;;
1811;SDS011;904;47.814;11.134;2023-08-17T08:25:46;7.77;;;3.90;;
1811;SDS011;904;47.814;11.134;2023-08-17T08:28:13;4.00;;;3.60;;
1811;SDS011;904;47.814;11.134;2023-08-17T08:30:40;6.43;;;3.80;;
1811;SDS011;904;47.814;11.134;2023-08-17T08:33:09;9.33;;;4.00;;
1811;SDS011;904;47.814;11.134;2023-08-17T08:35:36;9.13;;;3.37;;
1811;SDS011;904;47.814;11.134;2023-08-17T08:38:03;10.10;;;4.23;;
1811;SDS011;904;47.814;11.134;2023-08-17T08:40:30;5.53;;;4.23;;
1811;SDS011;904;47.814;11.134;2023-08-17T08:42:57;5.47;;;3.60;;
1811;SDS011;904;47.814;11.134;2023-08-17T08:45:24;6.17;;;3.80;;
1811;SDS011;904;47.814;11.134;2023-08-17T08:47:54;7.50;;;3.50;;
1811;SDS011;904;47.814;11.134;2023-08-17T08:50:24;5.57;;;3.73;;
1811;SDS011;904;47.814;11.134;2023-08-17T08:52:59;4.97;;;3.43;;
1811;SDS011;904;47.814;11.134;2023-08-17T08:55:29;6.80;;;3.47;;
1811;SDS011;904;47.814;11.134;2023-08-17T08:57:59;4.57;;;3.67;;
1811;SDS011;904;47.814;11.134;2023-08-17T09:00:26;5.50;;;3.63;;
1811;SDS011;904;47.814;11.134;2023-08-17T09:02:59;8.63;;;3.20;;
1811;SDS011;904;47.814;11.134;2023-08-17T09:05:30;6.03;;;3.40;;
1811;SDS011;904;47.814;11.134;2023-08-17T09:07:59;5.53;;;3.37;;
1811;SDS011;904;47.814;11.134;2023-08-17T09:10:28;5.07;;;3.50;;
1811;SDS011;904;47.814;11.134;2023-08-17T09:12:55;8.77;;;4.83;;
1811;SDS011;904;47.814;11.134;2023-08-17T09:15:22;6.43;;;4.00;;
1811;SDS011;904;47.814;11.134;2023-08-17T09:17:49;4.27;;;3.50;;
1811;SDS011;904;47.814;11.134;2023-08-17T09:23:09;6.90;;;2.93;;
1811;SDS011;904;47.814;11.134;2023-08-17T09:25:38;4.90;;;3.30;;
1811;SDS011;904;47.814;11.134;2023-08-17T09:28:06;5.70;;;3.03;;
1811;SDS011;904;47.814;11.134;2023-08-17T09:30:46;5.60;;;3.43;;
1811;SDS011;904;47.814;11.134;2023-08-17T09:33:24;5.90;;;4.17;;
1811;SDS011;904;47.814;11.134;2023-08-17T09:35:55;4.67;;;2.93;;
1811;SDS011;904;47.814;11.134;2023-08-17T09:38:22;4.30;;;3.20;;
1811;SDS011;904;47.814;11.134;2023-08-17T09:40:48;3.60;;;3.00;;
1811;SDS011;904;47.814;11.134;2023-08-17T09:43:17;3.47;;;2.90;;
1811;SDS011;904;47.814;11.134;2023-08-17T09:45:45;5.20;;;3.20;;
1811;SDS011;904;47.814;11.134;2023-08-17T09:48:15;4.03;;;2.70;;
1811;SDS011;904;47.814;11.134;2023-08-17T09:50:43;6.20;;;3.03;;
1811;SDS011;904;47.814;11.134;2023-08-17T09:53:13;5.60;;;3.10;;
1811;SDS011;904;47.814;11.134;2023-08-17T09:55:41;4.40;;;3.00;;
1811;SDS011;904;47.814;11.134;2023-08-17T09:58:08;4.00;;;2.77;;
1811;SDS011;904;47.814;11.134;2023-08-17T10:00:40;5.10;;;3.30;;
1811;SDS011;904;47.814;11.134;2023-08-17T10:03:11;5.00;;;3.20;;
1811;SDS011;904;47.814;11.134;2023-08-17T10:05:40;4.77;;;3.20;;
1811;SDS011;904;47.814;11.134;2023-08-17T10:08:10;3.90;;;2.60;;
1811;SDS011;904;47.814;11.134;2023-08-17T10:10:40;4.83;;;3.27;;
1811;SDS011;904;47.814;11.134;2023-08-17T10:13:10;8.83;;;3.30;;
1811;SDS011;904;47.814;11.134;2023-08-17T10:15:41;5.33;;;3.20;;
1811;SDS011;904;47.814;11.134;2023-08-17T10:18:13;4.70;;;3.30;;
1811;SDS011;904;47.814;11.134;2023-08-17T10:20:49;4.70;;;3.00;;
1811;SDS011;904;47.814;11.134;2023-08-17T10:23:27;4.93;;;3.40;;
1811;SDS011;904;47.814;11.134;2023-08-17T10:25:56;5.00;;;3.43;;
1811;SDS011;904;47.814;11.134;2023-08-17T10:28:24;4.50;;;3.17;;
1811;SDS011;904;47.814;11.134;2023-08-17T10:30:51;7.73;;;3.30;;
1811;SDS011;904;47.814;11.134;2023-08-17T10:33:18;4.83;;;3.30;;
1811;SDS011;904;47.814;11.134;2023-08-17T10:35:45;5.53;;;2.90;;
1811;SDS011;904;47.814;11.134;2023-08-17T10:38:14;4.63;;;3.40;;
1811;SDS011;904;47.814;11.134;2023-08-17T10:40:42;4.43;;;3.30;;
1811;SDS011;904;47.814;11.134;2023-08-17T10:43:12;6.83;;;3.40;;
1811;SDS011;904;47.814;11.134;2023-08-17T10:45:39;5.97;;;2.90;;
1811;SDS011;904;47.814;11.134;2023-08-17T10:48:25;7.23;;;3.73;;
1811;SDS011;904;47.814;11.134;2023-08-17T10:51:01;4.00;;;3.40;;
1811;SDS011;904;47.814;11.134;2023-08-17T10:53:36;7.10;;;3.20;;
1811;SDS011;904;47.814;11.134;2023-08-17T10:56:10;4.30;;;2.97;;
1811;SDS011;904;47.814;11.134;2023-08-17T10:58:39;4.30;;;3.40;;
1811;SDS011;904;47.814;11.134;2023-08-17T11:01:09;4.80;;;2.80;;
1811;SDS011;904;47.814;11.134;2023-08-17T11:03:36;10.10;;;3.57;;
1811;SDS011;904;47.814;11.134;2023-08-17T11:06:16;5.57;;;3.47;;
1811;SDS011;904;47.814;11.134;2023-08-17T11:08:53;6.87;;;3.40;;
1811;SDS011;904;47.814;11.134;2023-08-17T11:11:21;6.23;;;3.63;;
1811;SDS011;904;47.814;11.134;2023-08-17T11:13:52;5.80;;;4.03;;
1811;SDS011;904;47.814;11.134;2023-08-17T11:16:19;4.93;;;3.30;;
1811;SDS011;904;47.814;11.134;2023-08-17T11:18:46;3.90;;;3.50;;
1811;SDS011;904;47.814;11.134;2023-08-17T11:21:14;3.97;;;3.43;;
1811;SDS011;904;47.814;11.134;2023-08-17T11:23:42;5.07;;;3.70;;
1811;SDS011;904;47.814;11.134;2023-08-17T11:26:11;4.47;;;3.80;;
1811;SDS011;904;47.814;11.134;2023-08-17T11:28:41;4.57;;;3.40;;
1811;SDS011;904;47.814;11.134;2023-08-17T11:31:11;4.43;;;3.80;;
1811;SDS011;904;47.814;11.134;2023-08-17T11:33:40;5.43;;;3.20;;
1811;SDS011;904;47.814;11.134;2023-08-17T11:36:07;7.77;;;3.40;;
1811;SDS011;904;47.814;11.134;2023-08-17T11:38:36;4.90;;;3.40;;
1811;SDS011;904;47.814;11.134;2023-08-17T11:41:04;4.70;;;3.03;;
1811;SDS011;904;47.814;11.134;2023-08-17T11:43:33;5.97;;;3.50;;
1811;SDS011;904;47.814;11.134;2023-08-17T11:46:00;4.40;;;3.40;;
1811;SDS011;904;47.814;11.134;2023-08-17T11:48:29;7.20;;;4.07;;
1811;SDS011;904;47.814;11.134;2023-08-17T11:50:59;5.00;;;3.47;;
1811;SDS011;904;47.814;11.134;2023-08-17T11:53:32;3.70;;;3.13;;
1811;SDS011;904;47.814;11.134;2023-08-17T11:56:00;5.13;;;3.30;;
1811;SDS011;904;47.814;11.134;2023-08-17T12:01:12;3.73;;;2.80;;
1811;SDS011;904;47.814;11.134;2023-08-17T12:03:42;4.50;;;3.17;;
1811;SDS011;904;47.814;11.134;2023-08-17T12:06:09;4.00;;;2.67;;
1811;SDS011;904;47.814;11.134;2023-08-17T12:08:43;4.07;;;3.17;;
1811;SDS011;904;47.814;11.134;2023-08-17T12:11:11;3.60;;;2.43;;
1811;SDS011;904;47.814;11.134;2023-08-17T12:13:38;4.13;;;3.00;;
1811;SDS011;904;47.814;11.134;2023-08-17T12:16:05;6.07;;;2.80;;
1811;SDS011;904;47.814;11.134;2023-08-17T12:18:41;3.47;;;2.80;;
1811;SDS011;904;47.814;11.134;2023-08-17T12:21:10;4.27;;;2.70;;
1811;SDS011;904;47.814;11.134;2023-08-17T12:23:37;7.90;;;3.00;;
1811;SDS011;904;47.814;11.134;2023-08-17T12:26:05;3.53;;;2.80;;
1811;SDS011;904;47.814;11.134;2023-08-17T12:28:32;4.47;;;3.20;;
1811;SDS011;904;47.814;11.134;2023-08-17T12:30:59;3.40;;;2.60;;
1811;SDS011;904;47.814;11.134;2023-08-17T12:33:27;5.43;;;3.37;;
1811;SDS011;904;47.814;11.134;2023-08-17T12:35:56;4.90;;;3.23;;
1811;SDS011;904;47.814;11.134;2023-08-17T12:38:23;7.13;;;3.30;;
1811;SDS011;904;47.814;11.134;2023-08-17T12:40:51;5.40;;;3.73;;
1811;SDS011;904;47.814;11.134;2023-08-17T12:43:18;5.00;;;3.80;;
1811;SDS011;904;47.814;11.134;2023-08-17T12:45:45;4.87;;;3.63;;
1811;SDS011;904;47.814;11.134;2023-08-17T12:48:12;6.00;;;3.93;;
1811;SDS011;904;47.814;11.134;2023-08-17T12:50:39;3.93;;;3.07;;
1811;SDS011;904;47.814;11.134;2023-08-17T12:53:08;4.90;;;3.50;;
1811;SDS011;904;47.814;11.134;2023-08-17T12:55:35;3.53;;;2.80;;
1811;SDS011;904;47.814;11.134;2023-08-17T12:58:02;3.80;;;2.90;;
1811;SDS011;904;47.814;11.134;2023-08-17T13:00:30;3.90;;;3.37;;
1811;SDS011;904;47.814;11.134;2023-08-17T13:02:58;4.77;;;3.50;;
1811;SDS011;904;47.814;11.134;2023-08-17T13:05:25;3.83;;;3.30;;
1811;SDS011;904;47.814;11.134;2023-08-17T13:07:52;4.90;;;3.33;;
1811;SDS011;904;47.814;11.134;2023-08-17T13:10:20;4.67;;;3.80;;
1811;SDS011;904;47.814;11.134;2023-08-17T13:12:47;6.60;;;3.93;;
1811;SDS011;904;47.814;11.134;2023-08-17T13:15:19;4.70;;;4.20;;
1811;SDS011;904;47.814;11.134;2023-08-17T13:17:46;7.33;;;3.13;;
1811;SDS011;904;47.814;11.134;2023-08-17T13:20:13;4.73;;;3.30;;
1811;SDS011;904;47.814;11.134;2023-08-17T13:22:40;9.40;;;4.10;;
1811;SDS011;904;47.814;11.134;2023-08-17T13:25:07;6.63;;;3.50;;
1811;SDS011;904;47.814;11.134;2023-08-17T13:27:36;5.40;;;3.43;;
1811;SDS011;904;47.814;11.134;2023-08-17T13:30:03;4.87;;;3.73;;
1811;SDS011;904;47.814;11.134;2023-08-17T13:32:31;5.90;;;4.07;;
1811;SDS011;904;47.814;11.134;2023-08-17T13:34:58;4.57;;;3.77;;
1811;SDS011;904;47.814;11.134;2023-08-17T13:37:25;4.33;;;3.60;;
1811;SDS011;904;47.814;11.134;2023-08-17T13:39:53;8.07;;;4.60;;
1811;SDS011;904;47.814;11.134;2023-08-17T13:42:20;4.67;;;3.97;;
1811;SDS011;904;47.814;11.134;2023-08-17T13:44:48;6.80;;;3.87;;
1811;SDS011;904;47.814;11.134;2023-08-17T13:47:15;5.03;;;4.43;;
1811;SDS011;904;47.814;11.134;2023-08-17T13:49:43;5.10;;;3.40;;
1811;SDS011;904;47.814;11.134;2023-08-17T13:52:10;5.20;;;4.00;;
1811;SDS011;904;47.814;11.134;2023-08-17T13:54:38;4.17;;;2.80;;
1811;SDS011;904;47.814;11.134;2023-08-17T13:57:05;6.57;;;3.07;;
1811;SDS011;904;47.814;11.134;2023-08-17T13:59:32;6.20;;;3.10;;
1811;SDS011;904;47.814;11.134;2023-08-17T14:02:01;4.37;;;3.37;;
1811;SDS011;904;47.814;11.134;2023-08-17T14:04:28;4.13;;;2.83;;
1811;SDS011;904;47.814;11.134;2023-08-17T14:06:54;4.50;;;2.67;;
1811;SDS011;904;47.814;11.134;2023-08-17T14:09:22;4.60;;;3.27;;
1811;SDS011;904;47.814;11.134;2023-08-17T14:11:49;3.93;;;3.10;;
1811;SDS011;904;47.814;11.134;2023-08-17T14:14:15;3.23;;;2.40;;
1811;SDS011;904;47.814;11.134;2023-08-17T14:16:42;4.67;;;2.87;;
1811;SDS011;904;47.814;11.134;2023-08-17T14:19:11;4.17;;;3.40;;
1811;SDS011;904;47.814;11.134;2023-08-17T14:21:38;4.23;;;2.50;;
1811;SDS011;904;47.814;11.134;2023-08-17T14:24:05;4.33;;;2.90;;
1811;SDS011;904;47.814;11.134;2023-08-17T14:26:33;3.63;;;2.37;;
1811;SDS011;904;47.814;11.134;2023-08-17T14:29:00;3.70;;;2.50;;
1811;SDS011;904;47.814;11.134;2023-08-17T14:31:27;4.10;;;2.73;;
1811;SDS011;904;47.814;11.134;2023-08-17T14:33:54;5.30;;;2.67;;
1811;SDS011;904;47.814;11.134;2023-08-17T14:36:23;5.27;;;2.67;;
1811;SDS011;904;47.814;11.134;2023-08-17T14:38:50;3.73;;;2.63;;
1811;SDS011;904;47.814;11.134;2023-08-17T14:41:17;9.73;;;4.40;;
1811;SDS011;904;47.814;11.134;2023-08-17T14:43:44;5.27;;;2.87;;
1811;SDS011;904;47.814;11.134;2023-08-17T14:46:11;3.83;;;3.37;;
1811;SDS011;904;47.814;11.134;2023-08-17T14:48:50;4.10;;;2.93;;
1811;SDS011;904;47.814;11.134;2023-08-17T14:51:21;5.90;;;3.47;;
1811;SDS011;904;47.814;11.134;2023-08-17T14:53:50;4.17;;;2.53;;
1811;SDS011;904;47.814;11.134;2023-08-17T14:56:16;3.70;;;2.70;;
1811;SDS011;904;47.814;11.134;2023-08-17T14:58:43;3.73;;;2.70;;
1811;SDS011;904;47.814;11.134;2023-08-17T15:01:10;4.33;;;2.90;;
1811;SDS011;904;47.814;11.134;2023-08-17T15:03:38;5.97;;;3.03;;
1811;SDS011;904;47.814;11.134;2023-08-17T15:06:06;13.47;;;4.10;;
1811;SDS011;904;47.814;11.134;2023-08-17T15:08:36;5.10;;;2.87;;
1811;SDS011;904;47.814;11.134;2023-08-17T15:11:03;3.87;;;2.90;;
1811;SDS011;904;47.814;11.134;2023-08-17T15:13:30;6.10;;;2.97;;
1811;SDS011;904;47.814;11.134;2023-08-17T15:15:57;4.93;;;2.73;;
1811;SDS011;904;47.814;11.134;2023-08-17T15:18:24;10.90;;;3.33;;
1811;SDS011;904;47.814;11.134;2023-08-17T15:20:52;3.87;;;2.53;;
1811;SDS011;904;47.814;11.134;2023-08-17T15:23:18;4.63;;;2.47;;
1811;SDS011;904;47.814;11.134;2023-08-17T15:25:47;12.47;;;6.40;;
1811;SDS011;904;47.814;11.134;2023-08-17T15:28:14;7.90;;;5.23;;